Time;durP1;ratioP1;P1;durP2;ratioP2;P2;SDS_P1;SDS_P2;PMS_P1;PMS_P2;Temp;Humidity;BMP_temperature;BMP_pressure;BME280_temperature;BME280_humidity;BME280_pressure;Samples;Min_cycle;Max_cycle;Signal;HPM_P1;HPM_P2
2022/05/03 00:00:03;;;;;;;4.5;4.0;;;;;;;11.4;100.0;101650;;;;
2022/05/03 00:01:02;;;;;;;4.5;4.0;;;;;;;11.4;100.0;101650;;;;
2022/05/03 00:02:10;;;;;;;4.5;4.0;;;;;;;11.5;100.0;101650;;;;
2022/05/03 00:03:00;;;;;;;4.5;4.0;;;;;;;11.5;100.0;101650;;;;
2022/05/03 00:04:10;;;;;;;4.5;4.0;;;;;;;11.3;100.0;101650;;;;
2022/05/03 00:05:07;;;;;;;4.5;4.0;;;;;;;11.3;100.0;101650;;;;
2022/05/03 00:06:03;;;;;;;4.5;4.0;;;;;;;11.4;100.0;101650;;;;
2022/05/03 00:07:10;;;;;;;4.4;4.0;;;;;;;11.4;100.0;101650;;;;
2022/05/03 00:08:03;;;;;;;4.4;4.0;;;;;;;11.5;100.0;101650;;;;
2022/05/03 00:09:03;;;;;;;4.4;4.0;;;;;;;11.5;100.0;101650;;;;
2022/05/03 00:10:00;;;;;;;4.4;4.0;;;;;;;11.2;100.0;101650;;;;
2022/05/03 00:11:01;;;;;;;4.4;4.0;;;;;;;11.2;100.0;101650;;;;
2022/05/03 00:12:02;;;;;;;4.4;4.0;;;;;;;11.2;100.0;101650;;;;
2022/05/03 00:13:02;;;;;;;4.4;4.0;;;;;;;11.2;100.0;101650;;;;
2022/05/03 00:14:00;;;;;;;4.4;4.0;;;;;;;11.2;100.0;101640;;;;
2022/05/03 00:15:00;;;;;;;4.4;4.0;;;;;;;11.2;100.0;101640;;;;
2022/05/03 00:16:00;;;;;;;4.4;4.0;;;;;;;11.3;100.0;101640;;;;
2022/05/03 00:17:00;;;;;;;4.4;4.0;;;;;;;11.3;100.0;101640;;;;
2022/05/03 00:18:01;;;;;;;4.4;4.0;;;;;;;11.4;100.0;101640;;;;
2022/05/03 00:19:01;;;;;;;4.4;4.0;;;;;;;11.4;100.0;101640;;;;
2022/05/03 00:20:01;;;;;;;4.4;4.0;;;;;;;11.3;100.0;101640;;;;
2022/05/03 00:21:00;;;;;;;4.4;4.0;;;;;;;11.3;100.0;101640;;;;
2022/05/03 00:22:00;;;;;;;4.4;4.0;;;;;;;11.1;100.0;101640;;;;
2022/05/03 00:23:00;;;;;;;4.4;4.0;;;;;;;11.1;100.0;101640;;;;
2022/05/03 00:24:00;;;;;;;4.4;4.0;;;;;;;11.1;100.0;101640;;;;
2022/05/03 00:25:00;;;;;;;4.4;4.0;;;;;;;11.1;100.0;101640;;;;
2022/05/03 00:26:00;;;;;;;4.4;4.0;;;;;;;11.2;100.0;101640;;;;
2022/05/03 00:27:00;;;;;;;4.3;3.9;;;;;;;11.2;100.0;101640;;;;
2022/05/03 00:28:00;;;;;;;4.3;3.9;;;;;;;10.9;100.0;101630;;;;
2022/05/03 00:29:00;;;;;;;4.3;3.9;;;;;;;10.9;100.0;101630;;;;
2022/05/03 00:30:00;;;;;;;4.3;3.9;;;;;;;10.9;100.0;101630;;;;
2022/05/03 00:31:00;;;;;;;4.3;3.9;;;;;;;10.9;100.0;101630;;;;
2022/05/03 00:32:01;;;;;;;4.3;3.9;;;;;;;11.0;100.0;101630;;;;
2022/05/03 00:33:02;;;;;;;4.3;3.9;;;;;;;11.0;100.0;101630;;;;
2022/05/03 00:34:01;;;;;;;4.3;3.9;;;;;;;11.0;100.0;101630;;;;
2022/05/03 00:35:00;;;;;;;4.3;3.9;;;;;;;11.0;100.0;101630;;;;
2022/05/03 00:36:00;;;;;;;4.3;3.9;;;;;;;11.0;100.0;101630;;;;
2022/05/03 00:37:00;;;;;;;4.3;3.9;;;;;;;11.0;100.0;101630;;;;
2022/05/03 00:38:00;;;;;;;4.3;3.9;;;;;;;11.0;100.0;101630;;;;
2022/05/03 00:39:00;;;;;;;4.3;3.9;;;;;;;11.0;100.0;101630;;;;
2022/05/03 00:40:00;;;;;;;4.3;3.9;;;;;;;10.9;100.0;101630;;;;
2022/05/03 00:41:01;;;;;;;4.3;3.9;;;;;;;10.9;100.0;101630;;;;
2022/05/03 00:42:05;;;;;;;4.3;3.9;;;;;;;10.9;100.0;101630;;;;
2022/05/03 00:43:10;;;;;;;4.3;3.9;;;;;;;10.9;100.0;101630;;;;
2022/05/03 00:44:03;;;;;;;4.3;3.9;;;;;;;10.9;100.0;101620;;;;
2022/05/03 00:45:10;;;;;;;4.3;3.9;;;;;;;10.9;100.0;101620;;;;
2022/05/03 00:46:02;;;;;;;4.3;3.9;;;;;;;10.7;100.0;101630;;;;
2022/05/03 00:47:04;;;;;;;5.3;4.3;;;;;;;10.7;100.0;101630;;;;
2022/05/03 00:48:07;;;;;;;5.3;4.3;;;;;;;10.8;100.0;101630;;;;
2022/05/03 00:49:00;;;;;;;5.3;4.3;;;;;;;10.8;100.0;101630;;;;
2022/05/03 00:50:00;;;;;;;5.3;4.3;;;;;;;10.9;100.0;101620;;;;
2022/05/03 00:51:04;;;;;;;5.3;4.3;;;;;;;10.9;100.0;101620;;;;
2022/05/03 00:52:04;;;;;;;5.3;4.3;;;;;;;10.8;100.0;101620;;;;
2022/05/03 00:53:05;;;;;;;5.3;4.3;;;;;;;10.8;100.0;101620;;;;
2022/05/03 00:54:10;;;;;;;5.3;4.3;;;;;;;10.8;100.0;101630;;;;
2022/05/03 00:55:10;;;;;;;5.3;4.3;;;;;;;10.8;100.0;101630;;;;
2022/05/03 00:56:03;;;;;;;5.3;4.3;;;;;;;10.7;100.0;101630;;;;
2022/05/03 00:57:08;;;;;;;5.3;4.3;;;;;;;10.7;100.0;101630;;;;
2022/05/03 00:58:00;;;;;;;5.3;4.3;;;;;;;10.7;100.0;101630;;;;
2022/05/03 00:59:10;;;;;;;5.3;4.3;;;;;;;10.7;100.0;101630;;;;
2022/05/03 01:00:05;;;;;;;5.3;4.3;;;;;;;10.6;100.0;101630;;;;
2022/05/03 01:01:10;;;;;;;5.3;4.3;;;;;;;10.6;100.0;101630;;;;
2022/05/03 01:02:04;;;;;;;5.3;4.3;;;;;;;10.6;100.0;101630;;;;
2022/05/03 01:03:01;;;;;;;5.3;4.3;;;;;;;10.6;100.0;101630;;;;
2022/05/03 01:04:10;;;;;;;5.3;4.3;;;;;;;10.7;100.0;101630;;;;
2022/05/03 01:05:10;;;;;;;5.3;4.3;;;;;;;10.7;100.0;101630;;;;
2022/05/03 01:06:00;;;;;;;5.3;4.3;;;;;;;10.6;100.0;101630;;;;
2022/05/03 01:07:07;;;;;;;4.5;4.1;;;;;;;10.6;100.0;101630;;;;
2022/05/03 01:08:03;;;;;;;4.5;4.1;;;;;;;10.6;100.0;101630;;;;
2022/05/03 01:09:05;;;;;;;4.5;4.1;;;;;;;10.6;100.0;101630;;;;
2022/05/03 01:10:01;;;;;;;4.5;4.1;;;;;;;10.5;100.0;101640;;;;
2022/05/03 01:11:10;;;;;;;4.5;4.1;;;;;;;10.5;100.0;101640;;;;
2022/05/03 01:12:10;;;;;;;4.5;4.1;;;;;;;10.4;100.0;101640;;;;
2022/05/03 01:13:00;;;;;;;4.5;4.1;;;;;;;10.4;100.0;101640;;;;
2022/05/03 01:14:03;;;;;;;4.5;4.1;;;;;;;10.5;100.0;101630;;;;
2022/05/03 01:15:10;;;;;;;4.5;4.1;;;;;;;10.5;100.0;101630;;;;
2022/05/03 01:16:05;;;;;;;4.5;4.1;;;;;;;10.4;100.0;101630;;;;
2022/05/03 01:17:06;;;;;;;4.5;4.1;;;;;;;10.4;100.0;101630;;;;
2022/05/03 01:18:10;;;;;;;4.5;4.1;;;;;;;10.4;100.0;101630;;;;
2022/05/03 01:19:07;;;;;;;4.5;4.1;;;;;;;10.4;100.0;101630;;;;
2022/05/03 01:20:05;;;;;;;4.5;4.1;;;;;;;10.4;100.0;101630;;;;
2022/05/03 01:21:01;;;;;;;4.5;4.1;;;;;;;10.4;100.0;101630;;;;
2022/05/03 01:22:00;;;;;;;4.5;4.1;;;;;;;10.4;100.0;101630;;;;
2022/05/03 01:23:00;;;;;;;4.5;4.1;;;;;;;10.4;100.0;101630;;;;
2022/05/03 01:24:10;;;;;;;4.5;4.1;;;;;;;10.3;100.0;101630;;;;
2022/05/03 01:25:07;;;;;;;4.5;4.1;;;;;;;10.3;100.0;101630;;;;
2022/05/03 01:26:00;;;;;;;4.5;4.1;;;;;;;10.3;100.0;101630;;;;
2022/05/03 01:27:07;;;;;;;4.9;4.5;;;;;;;10.3;100.0;101630;;;;
2022/05/03 01:28:00;;;;;;;4.9;4.5;;;;;;;10.4;100.0;101640;;;;
2022/05/03 01:29:10;;;;;;;4.9;4.5;;;;;;;10.4;100.0;101640;;;;
2022/05/03 01:30:01;;;;;;;4.9;4.5;;;;;;;10.2;100.0;101630;;;;
2022/05/03 01:31:04;;;;;;;4.9;4.5;;;;;;;10.2;100.0;101630;;;;
2022/05/03 01:32:01;;;;;;;4.9;4.5;;;;;;;10.2;100.0;101640;;;;
2022/05/03 01:33:08;;;;;;;4.9;4.5;;;;;;;10.2;100.0;101640;;;;
2022/05/03 01:34:01;;;;;;;4.9;4.5;;;;;;;10.1;100.0;101630;;;;
2022/05/03 01:35:01;;;;;;;4.9;4.5;;;;;;;10.1;100.0;101630;;;;
2022/05/03 01:36:01;;;;;;;4.9;4.5;;;;;;;10.0;100.0;101640;;;;
2022/05/03 01:37:00;;;;;;;4.9;4.5;;;;;;;10.0;100.0;101640;;;;
2022/05/03 01:38:10;;;;;;;4.9;4.5;;;;;;;10.1;100.0;101630;;;;
2022/05/03 01:39:04;;;;;;;4.9;4.5;;;;;;;10.1;100.0;101630;;;;
2022/05/03 01:40:05;;;;;;;4.9;4.5;;;;;;;10.1;100.0;101630;;;;
2022/05/03 01:41:08;;;;;;;4.9;4.5;;;;;;;10.1;100.0;101630;;;;
2022/05/03 01:42:03;;;;;;;4.9;4.5;;;;;;;10.1;100.0;101620;;;;
2022/05/03 01:43:06;;;;;;;4.9;4.5;;;;;;;10.1;100.0;101620;;;;
2022/05/03 01:44:08;;;;;;;4.9;4.5;;;;;;;10.1;100.0;101620;;;;
2022/05/03 01:45:05;;;;;;;4.9;4.5;;;;;;;10.1;100.0;101620;;;;
2022/05/03 01:46:10;;;;;;;4.9;4.5;;;;;;;10.0;100.0;101630;;;;
2022/05/03 01:47:07;;;;;;;4.8;4.4;;;;;;;10.0;100.0;101630;;;;
2022/05/03 01:48:00;;;;;;;4.8;4.4;;;;;;;9.9;100.0;101630;;;;
2022/05/03 01:51:06;;;;;;;4.8;4.4;;;;;;;9.9;100.0;101630;;;;
2022/05/03 01:52:10;;;;;;;4.8;4.4;;;;;;;9.9;100.0;101630;;;;
2022/05/03 01:53:10;;;;;;;4.8;4.4;;;;;;;9.9;100.0;101630;;;;
2022/05/03 01:54:10;;;;;;;4.8;4.4;;;;;;;9.7;100.0;101630;;;;
2022/05/03 01:55:10;;;;;;;4.8;4.4;;;;;;;9.7;100.0;101630;;;;
2022/05/03 01:56:10;;;;;;;4.8;4.4;;;;;;;9.8;100.0;101630;;;;
2022/05/03 01:57:10;;;;;;;4.8;4.4;;;;;;;9.8;100.0;101630;;;;
2022/05/03 01:58:09;;;;;;;4.8;4.4;;;;;;;9.8;100.0;101620;;;;
2022/05/03 01:59:04;;;;;;;4.8;4.4;;;;;;;9.8;100.0;101620;;;;
2022/05/03 02:00:01;;;;;;;4.8;4.4;;;;;;;9.8;100.0;101620;;;;
2022/05/03 02:01:10;;;;;;;4.8;4.4;;;;;;;9.8;100.0;101620;;;;
2022/05/03 02:02:10;;;;;;;4.8;4.4;;;;;;;9.9;100.0;101630;;;;
2022/05/03 02:03:03;;;;;;;4.8;4.4;;;;;;;9.9;100.0;101630;;;;
2022/05/03 02:04:10;;;;;;;4.8;4.4;;;;;;;9.8;100.0;101620;;;;
2022/05/03 02:05:04;;;;;;;4.8;4.4;;;;;;;9.8;100.0;101620;;;;
2022/05/03 02:06:02;;;;;;;4.8;4.4;;;;;;;9.8;100.0;101620;;;;
2022/05/03 02:07:10;;;;;;;4.9;4.5;;;;;;;9.8;100.0;101620;;;;
2022/05/03 02:08:00;;;;;;;4.9;4.5;;;;;;;9.9;100.0;101620;;;;
2022/05/03 02:09:00;;;;;;;4.9;4.5;;;;;;;9.9;100.0;101620;;;;
2022/05/03 02:10:10;;;;;;;4.9;4.5;;;;;;;9.7;100.0;101630;;;;
2022/05/03 02:11:01;;;;;;;4.9;4.5;;;;;;;9.7;100.0;101630;;;;
2022/05/03 02:12:05;;;;;;;4.9;4.5;;;;;;;9.7;100.0;101630;;;;
2022/05/03 02:13:05;;;;;;;4.9;4.5;;;;;;;9.7;100.0;101630;;;;
2022/05/03 02:15:03;;;;;;;4.9;4.5;;;;;;;9.6;100.0;101630;;;;
2022/05/03 02:16:07;;;;;;;4.9;4.5;;;;;;;9.6;100.0;101620;;;;
2022/05/03 02:17:10;;;;;;;4.9;4.5;;;;;;;9.6;100.0;101620;;;;
2022/05/03 02:18:05;;;;;;;4.9;4.5;;;;;;;9.6;100.0;101630;;;;
2022/05/03 02:19:08;;;;;;;4.9;4.5;;;;;;;9.6;100.0;101630;;;;
2022/05/03 02:20:11;;;;;;;4.9;4.5;;;;;;;9.5;100.0;101630;;;;
2022/05/03 02:21:09;;;;;;;4.9;4.5;;;;;;;9.5;100.0;101630;;;;
2022/05/03 02:22:10;;;;;;;4.9;4.5;;;;;;;9.5;100.0;101620;;;;
2022/05/03 02:23:12;;;;;;;4.9;4.5;;;;;;;9.5;100.0;101620;;;;
2022/05/03 02:24:10;;;;;;;4.9;4.5;;;;;;;9.4;100.0;101620;;;;
2022/05/03 02:25:03;;;;;;;4.9;4.5;;;;;;;9.4;100.0;101620;;;;
2022/05/03 02:26:00;;;;;;;4.9;4.5;;;;;;;9.5;100.0;101620;;;;
2022/05/03 02:27:08;;;;;;;5.0;4.6;;;;;;;9.5;100.0;101620;;;;
2022/05/03 02:28:10;;;;;;;5.0;4.6;;;;;;;9.5;100.0;101620;;;;
2022/05/03 02:29:05;;;;;;;5.0;4.6;;;;;;;9.5;100.0;101620;;;;
2022/05/03 02:30:00;;;;;;;5.0;4.6;;;;;;;9.3;100.0;101620;;;;
2022/05/03 02:31:02;;;;;;;5.0;4.6;;;;;;;9.3;100.0;101620;;;;
2022/05/03 02:32:02;;;;;;;5.0;4.6;;;;;;;9.3;100.0;101620;;;;
2022/05/03 02:33:01;;;;;;;5.0;4.6;;;;;;;9.3;100.0;101620;;;;
2022/05/03 02:34:07;;;;;;;5.0;4.6;;;;;;;9.3;100.0;101610;;;;
2022/05/03 02:35:03;;;;;;;5.0;4.6;;;;;;;9.3;100.0;101610;;;;
2022/05/03 02:36:01;;;;;;;5.0;4.6;;;;;;;9.4;100.0;101610;;;;
2022/05/03 02:37:07;;;;;;;5.0;4.6;;;;;;;9.4;100.0;101610;;;;
2022/05/03 02:38:04;;;;;;;5.0;4.6;;;;;;;9.3;100.0;101620;;;;
2022/05/03 02:39:05;;;;;;;5.0;4.6;;;;;;;9.3;100.0;101620;;;;
2022/05/03 02:40:02;;;;;;;5.0;4.6;;;;;;;9.3;100.0;101620;;;;
2022/05/03 02:41:03;;;;;;;5.0;4.6;;;;;;;9.3;100.0;101620;;;;
2022/05/03 02:42:01;;;;;;;5.0;4.6;;;;;;;9.3;100.0;101610;;;;
2022/05/03 02:43:00;;;;;;;5.0;4.6;;;;;;;9.3;100.0;101610;;;;
2022/05/03 02:44:01;;;;;;;5.0;4.6;;;;;;;9.3;100.0;101620;;;;
2022/05/03 02:45:01;;;;;;;5.0;4.6;;;;;;;9.3;100.0;101620;;;;
2022/05/03 02:46:10;;;;;;;5.0;4.6;;;;;;;9.2;100.0;101620;;;;
2022/05/03 02:47:10;;;;;;;5.0;4.5;;;;;;;9.2;100.0;101620;;;;
2022/05/03 02:48:13;;;;;;;5.0;4.5;;;;;;;9.3;100.0;101610;;;;
2022/05/03 02:49:04;;;;;;;5.0;4.5;;;;;;;9.3;100.0;101610;;;;
2022/05/03 02:50:01;;;;;;;5.0;4.5;;;;;;;9.2;100.0;101610;;;;
2022/05/03 02:51:04;;;;;;;5.0;4.5;;;;;;;9.2;100.0;101610;;;;
2022/05/03 02:52:01;;;;;;;5.0;4.5;;;;;;;9.0;100.0;101620;;;;
2022/05/03 02:53:02;;;;;;;5.0;4.5;;;;;;;9.0;100.0;101620;;;;
2022/05/03 02:54:05;;;;;;;5.0;4.5;;;;;;;9.1;100.0;101620;;;;
2022/05/03 02:55:00;;;;;;;5.0;4.5;;;;;;;9.1;100.0;101620;;;;
2022/05/03 02:56:04;;;;;;;5.0;4.5;;;;;;;9.1;100.0;101620;;;;
2022/05/03 02:57:06;;;;;;;5.0;4.5;;;;;;;9.1;100.0;101620;;;;
2022/05/03 02:58:00;;;;;;;5.0;4.5;;;;;;;9.0;100.0;101620;;;;
2022/05/03 02:59:10;;;;;;;5.0;4.5;;;;;;;9.0;100.0;101620;;;;
2022/05/03 03:02:09;;;;;;;5.0;4.5;;;;;;;9.0;100.0;101620;;;;
2022/05/03 03:03:10;;;;;;;5.0;4.5;;;;;;;9.0;100.0;101620;;;;
2022/05/03 03:04:02;;;;;;;5.0;4.5;;;;;;;9.0;100.0;101630;;;;
2022/05/03 03:05:03;;;;;;;5.0;4.5;;;;;;;9.0;100.0;101630;;;;
2022/05/03 03:06:01;;;;;;;5.0;4.5;;;;;;;9.1;100.0;101620;;;;
2022/05/03 03:07:00;;;;;;;4.7;4.4;;;;;;;9.1;100.0;101620;;;;
2022/05/03 03:08:01;;;;;;;4.7;4.4;;;;;;;9.0;100.0;101620;;;;
2022/05/03 03:09:00;;;;;;;4.7;4.4;;;;;;;9.0;100.0;101620;;;;
2022/05/03 03:10:03;;;;;;;4.7;4.4;;;;;;;8.7;100.0;101620;;;;
2022/05/03 03:11:02;;;;;;;4.7;4.4;;;;;;;8.7;100.0;101620;;;;
2022/05/03 03:12:04;;;;;;;4.7;4.4;;;;;;;8.7;100.0;101620;;;;
2022/05/03 03:13:05;;;;;;;4.7;4.4;;;;;;;8.7;100.0;101620;;;;
2022/05/03 03:14:00;;;;;;;4.7;4.4;;;;;;;8.7;100.0;101610;;;;
2022/05/03 03:15:04;;;;;;;4.7;4.4;;;;;;;8.7;100.0;101610;;;;
2022/05/03 03:16:00;;;;;;;4.7;4.4;;;;;;;8.9;100.0;101610;;;;
2022/05/03 03:17:03;;;;;;;4.7;4.4;;;;;;;8.9;100.0;101610;;;;
2022/05/03 03:18:02;;;;;;;4.7;4.4;;;;;;;8.9;100.0;101610;;;;
2022/05/03 03:19:07;;;;;;;4.7;4.4;;;;;;;8.9;100.0;101610;;;;
2022/05/03 03:20:05;;;;;;;4.7;4.4;;;;;;;8.9;100.0;101610;;;;
2022/05/03 03:21:05;;;;;;;4.7;4.4;;;;;;;8.9;100.0;101610;;;;
2022/05/03 03:22:01;;;;;;;4.7;4.4;;;;;;;8.8;100.0;101610;;;;
2022/05/03 03:23:01;;;;;;;4.7;4.4;;;;;;;8.8;100.0;101610;;;;
2022/05/03 03:24:01;;;;;;;4.7;4.4;;;;;;;8.8;100.0;101610;;;;
2022/05/03 03:25:01;;;;;;;4.7;4.4;;;;;;;8.8;100.0;101610;;;;
2022/05/03 03:26:00;;;;;;;4.7;4.4;;;;;;;8.7;100.0;101620;;;;
2022/05/03 03:27:02;;;;;;;5.8;5.3;;;;;;;8.7;100.0;101620;;;;
2022/05/03 03:28:01;;;;;;;5.8;5.3;;;;;;;8.8;100.0;101620;;;;
2022/05/03 03:29:04;;;;;;;5.8;5.3;;;;;;;8.8;100.0;101620;;;;
2022/05/03 03:30:01;;;;;;;5.8;5.3;;;;;;;8.9;100.0;101620;;;;
2022/05/03 03:31:00;;;;;;;5.8;5.3;;;;;;;8.9;100.0;101620;;;;
2022/05/03 03:32:01;;;;;;;5.8;5.3;;;;;;;8.7;100.0;101620;;;;
2022/05/03 03:33:01;;;;;;;5.8;5.3;;;;;;;8.7;100.0;101620;;;;
2022/05/03 03:34:01;;;;;;;5.8;5.3;;;;;;;8.6;100.0;101620;;;;
2022/05/03 03:35:01;;;;;;;5.8;5.3;;;;;;;8.6;100.0;101620;;;;
2022/05/03 03:36:02;;;;;;;5.8;5.3;;;;;;;8.6;100.0;101610;;;;
2022/05/03 03:37:01;;;;;;;5.8;5.3;;;;;;;8.6;100.0;101610;;;;
2022/05/03 03:38:01;;;;;;;5.8;5.3;;;;;;;8.7;100.0;101620;;;;
2022/05/03 03:39:00;;;;;;;5.8;5.3;;;;;;;8.7;100.0;101620;;;;
2022/05/03 03:40:00;;;;;;;5.8;5.3;;;;;;;8.5;100.0;101620;;;;
2022/05/03 03:41:00;;;;;;;5.8;5.3;;;;;;;8.5;100.0;101620;;;;
2022/05/03 03:42:01;;;;;;;5.8;5.3;;;;;;;8.6;100.0;101620;;;;
2022/05/03 03:43:00;;;;;;;5.8;5.3;;;;;;;8.6;100.0;101620;;;;
2022/05/03 03:44:03;;;;;;;5.8;5.3;;;;;;;8.6;100.0;101610;;;;
2022/05/03 03:45:02;;;;;;;5.8;5.3;;;;;;;8.6;100.0;101610;;;;
2022/05/03 03:46:00;;;;;;;5.8;5.3;;;;;;;8.6;100.0;101610;;;;
2022/05/03 03:47:01;;;;;;;6.1;5.6;;;;;;;8.6;100.0;101610;;;;
2022/05/03 03:48:00;;;;;;;6.1;5.6;;;;;;;8.5;100.0;101610;;;;
2022/05/03 03:49:00;;;;;;;6.1;5.6;;;;;;;8.5;100.0;101610;;;;
2022/05/03 03:50:00;;;;;;;6.1;5.6;;;;;;;8.5;100.0;101610;;;;
2022/05/03 03:51:00;;;;;;;6.1;5.6;;;;;;;8.5;100.0;101610;;;;
2022/05/03 03:52:01;;;;;;;6.1;5.6;;;;;;;8.5;100.0;101610;;;;
2022/05/03 03:53:00;;;;;;;6.1;5.6;;;;;;;8.5;100.0;101610;;;;
2022/05/03 03:54:00;;;;;;;6.1;5.6;;;;;;;8.5;100.0;101600;;;;
2022/05/03 03:55:07;;;;;;;6.1;5.6;;;;;;;8.5;100.0;101600;;;;
2022/05/03 03:56:01;;;;;;;6.1;5.6;;;;;;;8.5;100.0;101610;;;;
2022/05/03 03:57:00;;;;;;;6.1;5.6;;;;;;;8.5;100.0;101610;;;;
2022/05/03 03:58:00;;;;;;;6.1;5.6;;;;;;;8.4;100.0;101610;;;;
2022/05/03 03:59:01;;;;;;;6.1;5.6;;;;;;;8.4;100.0;101610;;;;
2022/05/03 04:00:01;;;;;;;6.1;5.6;;;;;;;8.5;100.0;101610;;;;
2022/05/03 04:01:00;;;;;;;6.1;5.6;;;;;;;8.5;100.0;101610;;;;
2022/05/03 04:02:01;;;;;;;6.1;5.6;;;;;;;8.5;100.0;101610;;;;
2022/05/03 04:03:00;;;;;;;6.1;5.6;;;;;;;8.5;100.0;101610;;;;
2022/05/03 04:04:00;;;;;;;6.1;5.6;;;;;;;8.4;100.0;101610;;;;
2022/05/03 04:05:01;;;;;;;6.1;5.6;;;;;;;8.4;100.0;101610;;;;
2022/05/03 04:06:00;;;;;;;6.1;5.6;;;;;;;8.4;100.0;101610;;;;
2022/05/03 04:07:00;;;;;;;6.6;5.9;;;;;;;8.4;100.0;101610;;;;
2022/05/03 04:08:00;;;;;;;6.6;5.9;;;;;;;8.4;100.0;101610;;;;
2022/05/03 04:09:00;;;;;;;6.6;5.9;;;;;;;8.4;100.0;101610;;;;
2022/05/03 04:10:00;;;;;;;6.6;5.9;;;;;;;8.4;100.0;101610;;;;
2022/05/03 04:11:10;;;;;;;6.6;5.9;;;;;;;8.4;100.0;101610;;;;
2022/05/03 04:12:00;;;;;;;6.6;5.9;;;;;;;8.4;100.0;101620;;;;
2022/05/03 04:13:00;;;;;;;6.6;5.9;;;;;;;8.4;100.0;101620;;;;
2022/05/03 04:14:00;;;;;;;6.6;5.9;;;;;;;8.4;100.0;101620;;;;
2022/05/03 04:15:00;;;;;;;6.6;5.9;;;;;;;8.4;100.0;101620;;;;
2022/05/03 04:16:00;;;;;;;6.6;5.9;;;;;;;8.2;100.0;101620;;;;
2022/05/03 04:17:00;;;;;;;6.6;5.9;;;;;;;8.2;100.0;101620;;;;
2022/05/03 04:18:06;;;;;;;6.6;5.9;;;;;;;8.2;100.0;101620;;;;
2022/05/03 04:19:00;;;;;;;6.6;5.9;;;;;;;8.2;100.0;101620;;;;
2022/05/03 04:20:00;;;;;;;6.6;5.9;;;;;;;8.3;100.0;101620;;;;
2022/05/03 04:21:00;;;;;;;6.6;5.9;;;;;;;8.3;100.0;101620;;;;
2022/05/03 04:22:12;;;;;;;6.6;5.9;;;;;;;8.3;100.0;101620;;;;
2022/05/03 04:23:00;;;;;;;6.6;5.9;;;;;;;8.3;100.0;101620;;;;
2022/05/03 04:24:00;;;;;;;6.6;5.9;;;;;;;8.2;100.0;101620;;;;
2022/05/03 04:25:00;;;;;;;6.6;5.9;;;;;;;8.2;100.0;101620;;;;
2022/05/03 04:26:00;;;;;;;6.6;5.9;;;;;;;8.3;100.0;101620;;;;
2022/05/03 04:27:00;;;;;;;6.5;6.0;;;;;;;8.3;100.0;101620;;;;
2022/05/03 04:28:00;;;;;;;6.5;6.0;;;;;;;8.4;100.0;101620;;;;
2022/05/03 04:29:01;;;;;;;6.5;6.0;;;;;;;8.4;100.0;101620;;;;
2022/05/03 04:30:00;;;;;;;6.5;6.0;;;;;;;8.3;100.0;101620;;;;
2022/05/03 04:31:00;;;;;;;6.5;6.0;;;;;;;8.3;100.0;101620;;;;
2022/05/03 04:32:00;;;;;;;6.5;6.0;;;;;;;8.4;100.0;101620;;;;
2022/05/03 04:33:00;;;;;;;6.5;6.0;;;;;;;8.4;100.0;101620;;;;
2022/05/03 04:34:02;;;;;;;6.5;6.0;;;;;;;8.4;100.0;101620;;;;
2022/05/03 04:35:00;;;;;;;6.5;6.0;;;;;;;8.4;100.0;101620;;;;
2022/05/03 04:36:00;;;;;;;6.5;6.0;;;;;;;8.4;100.0;101620;;;;
2022/05/03 04:37:00;;;;;;;6.5;6.0;;;;;;;8.4;100.0;101620;;;;
2022/05/03 04:38:00;;;;;;;6.5;6.0;;;;;;;8.4;100.0;101620;;;;
2022/05/03 04:39:00;;;;;;;6.5;6.0;;;;;;;8.4;100.0;101620;;;;
2022/05/03 04:40:00;;;;;;;6.5;6.0;;;;;;;8.4;100.0;101620;;;;
2022/05/03 04:41:01;;;;;;;6.5;6.0;;;;;;;8.4;100.0;101620;;;;
2022/05/03 04:42:00;;;;;;;6.5;6.0;;;;;;;8.3;100.0;101620;;;;
2022/05/03 04:43:00;;;;;;;6.5;6.0;;;;;;;8.3;100.0;101620;;;;
2022/05/03 04:44:00;;;;;;;6.5;6.0;;;;;;;8.3;100.0;101630;;;;
2022/05/03 04:45:00;;;;;;;6.5;6.0;;;;;;;8.3;100.0;101630;;;;
2022/05/03 04:46:00;;;;;;;6.7;6.1;;;;;;;8.3;100.0;101620;;;;
2022/05/03 04:47:00;;;;;;;6.7;6.1;;;;;;;8.3;100.0;101620;;;;
2022/05/03 04:48:00;;;;;;;6.7;6.1;;;;;;;8.2;100.0;101630;;;;
2022/05/03 04:49:00;;;;;;;6.7;6.1;;;;;;;8.2;100.0;101630;;;;
2022/05/03 04:50:00;;;;;;;6.7;6.1;;;;;;;8.3;100.0;101630;;;;
2022/05/03 04:51:00;;;;;;;6.7;6.1;;;;;;;8.3;100.0;101630;;;;
2022/05/03 04:52:00;;;;;;;6.7;6.1;;;;;;;8.3;100.0;101630;;;;
2022/05/03 04:53:00;;;;;;;6.7;6.1;;;;;;;8.3;100.0;101630;;;;
2022/05/03 04:54:00;;;;;;;6.7;6.1;;;;;;;8.3;100.0;101630;;;;
2022/05/03 04:55:00;;;;;;;6.7;6.1;;;;;;;8.3;100.0;101630;;;;
2022/05/03 04:56:00;;;;;;;6.7;6.1;;;;;;;8.3;100.0;101630;;;;
2022/05/03 04:57:03;;;;;;;6.7;6.1;;;;;;;8.3;100.0;101630;;;;
2022/05/03 04:58:05;;;;;;;6.7;6.1;;;;;;;8.3;100.0;101630;;;;
2022/05/03 04:59:01;;;;;;;6.7;6.1;;;;;;;8.3;100.0;101630;;;;
2022/05/03 05:00:00;;;;;;;6.7;6.1;;;;;;;8.4;100.0;101630;;;;
2022/05/03 05:01:01;;;;;;;6.7;6.1;;;;;;;8.4;100.0;101630;;;;
2022/05/03 05:02:00;;;;;;;6.7;6.1;;;;;;;8.4;100.0;101630;;;;
2022/05/03 05:03:00;;;;;;;6.7;6.1;;;;;;;8.4;100.0;101630;;;;
2022/05/03 05:04:00;;;;;;;6.7;6.1;;;;;;;8.3;100.0;101640;;;;
2022/05/03 05:05:00;;;;;;;6.7;6.1;;;;;;;8.3;100.0;101640;;;;
2022/05/03 05:06:00;;;;;;;7.3;6.6;;;;;;;8.4;100.0;101640;;;;
2022/05/03 05:07:00;;;;;;;7.3;6.6;;;;;;;8.4;100.0;101640;;;;
2022/05/03 05:08:02;;;;;;;7.3;6.6;;;;;;;8.4;100.0;101640;;;;
2022/05/03 05:09:00;;;;;;;7.3;6.6;;;;;;;8.4;100.0;101640;;;;
2022/05/03 05:11:00;;;;;;;7.3;6.6;;;;;;;8.4;100.0;101640;;;;
2022/05/03 05:12:00;;;;;;;7.3;6.6;;;;;;;8.4;100.0;101640;;;;
2022/05/03 05:13:01;;;;;;;7.3;6.6;;;;;;;8.4;100.0;101640;;;;
2022/05/03 05:14:00;;;;;;;7.3;6.6;;;;;;;8.4;100.0;101640;;;;
2022/05/03 05:15:00;;;;;;;7.3;6.6;;;;;;;8.4;100.0;101640;;;;
2022/05/03 05:16:00;;;;;;;7.3;6.6;;;;;;;8.4;100.0;101640;;;;
2022/05/03 05:17:00;;;;;;;7.3;6.6;;;;;;;8.4;100.0;101640;;;;
2022/05/03 05:18:00;;;;;;;7.3;6.6;;;;;;;8.3;100.0;101650;;;;
2022/05/03 05:19:00;;;;;;;7.3;6.6;;;;;;;8.3;100.0;101650;;;;
2022/05/03 05:20:00;;;;;;;7.3;6.6;;;;;;;8.4;100.0;101650;;;;
2022/05/03 05:21:01;;;;;;;7.3;6.6;;;;;;;8.4;100.0;101650;;;;
2022/05/03 05:22:00;;;;;;;7.3;6.6;;;;;;;8.4;100.0;101650;;;;
2022/05/03 05:23:10;;;;;;;7.3;6.6;;;;;;;8.4;100.0;101650;;;;
2022/05/03 05:24:00;;;;;;;7.3;6.6;;;;;;;8.4;100.0;101650;;;;
2022/05/03 05:25:00;;;;;;;7.3;6.6;;;;;;;8.4;100.0;101650;;;;
2022/05/03 05:26:00;;;;;;;8.2;7.2;;;;;;;8.5;100.0;101660;;;;
2022/05/03 05:27:00;;;;;;;8.2;7.2;;;;;;;8.5;100.0;101660;;;;
2022/05/03 05:28:00;;;;;;;8.2;7.2;;;;;;;8.5;100.0;101660;;;;
2022/05/03 05:29:00;;;;;;;8.2;7.2;;;;;;;8.5;100.0;101660;;;;
2022/05/03 05:30:00;;;;;;;8.2;7.2;;;;;;;8.4;100.0;101660;;;;
2022/05/03 05:31:00;;;;;;;8.2;7.2;;;;;;;8.4;100.0;101660;;;;
2022/05/03 05:32:00;;;;;;;8.2;7.2;;;;;;;8.5;100.0;101660;;;;
2022/05/03 05:33:00;;;;;;;8.2;7.2;;;;;;;8.5;100.0;101660;;;;
2022/05/03 05:34:00;;;;;;;8.2;7.2;;;;;;;8.5;100.0;101660;;;;
2022/05/03 05:35:00;;;;;;;8.2;7.2;;;;;;;8.5;100.0;101660;;;;
2022/05/03 05:36:00;;;;;;;8.2;7.2;;;;;;;8.6;100.0;101660;;;;
2022/05/03 05:37:00;;;;;;;8.2;7.2;;;;;;;8.6;100.0;101660;;;;
2022/05/03 05:38:00;;;;;;;8.2;7.2;;;;;;;8.6;100.0;101660;;;;
2022/05/03 05:39:00;;;;;;;8.2;7.2;;;;;;;8.6;100.0;101660;;;;
2022/05/03 05:40:00;;;;;;;8.2;7.2;;;;;;;8.6;100.0;101660;;;;
2022/05/03 05:41:10;;;;;;;8.2;7.2;;;;;;;8.6;100.0;101660;;;;
2022/05/03 05:42:01;;;;;;;8.2;7.2;;;;;;;8.6;100.0;101670;;;;
2022/05/03 05:43:00;;;;;;;8.2;7.2;;;;;;;8.6;100.0;101670;;;;
2022/05/03 05:44:03;;;;;;;8.2;7.2;;;;;;;8.6;100.0;101670;;;;
2022/05/03 05:45:00;;;;;;;8.2;7.2;;;;;;;8.6;100.0;101670;;;;
2022/05/03 05:46:01;;;;;;;8.6;7.8;;;;;;;8.7;100.0;101670;;;;
2022/05/03 05:47:00;;;;;;;8.6;7.8;;;;;;;8.7;100.0;101670;;;;
2022/05/03 05:48:00;;;;;;;8.6;7.8;;;;;;;8.7;100.0;101670;;;;
2022/05/03 05:49:00;;;;;;;8.6;7.8;;;;;;;8.7;100.0;101670;;;;
2022/05/03 05:50:00;;;;;;;8.6;7.8;;;;;;;8.8;100.0;101670;;;;
2022/05/03 05:51:00;;;;;;;8.6;7.8;;;;;;;8.8;100.0;101670;;;;
2022/05/03 05:54:00;;;;;;;8.6;7.8;;;;;;;8.9;100.0;101670;;;;
2022/05/03 05:55:00;;;;;;;8.6;7.8;;;;;;;8.9;100.0;101670;;;;
2022/05/03 05:56:00;;;;;;;8.6;7.8;;;;;;;8.9;100.0;101670;;;;
2022/05/03 05:57:00;;;;;;;8.6;7.8;;;;;;;8.9;100.0;101670;;;;
2022/05/03 05:58:00;;;;;;;8.6;7.8;;;;;;;9.0;100.0;101670;;;;
2022/05/03 05:59:00;;;;;;;8.6;7.8;;;;;;;9.0;100.0;101670;;;;
2022/05/03 06:00:00;;;;;;;8.6;7.8;;;;;;;9.0;100.0;101670;;;;
2022/05/03 06:01:00;;;;;;;8.6;7.8;;;;;;;9.0;100.0;101670;;;;
2022/05/03 06:02:00;;;;;;;8.6;7.8;;;;;;;9.1;100.0;101670;;;;
2022/05/03 06:03:00;;;;;;;8.6;7.8;;;;;;;9.1;100.0;101670;;;;
2022/05/03 06:04:00;;;;;;;8.6;7.8;;;;;;;9.1;100.0;101670;;;;
2022/05/03 06:05:00;;;;;;;8.6;7.8;;;;;;;9.1;100.0;101670;;;;
2022/05/03 06:06:00;;;;;;;9.5;7.0;;;;;;;9.2;100.0;101670;;;;
2022/05/03 06:07:00;;;;;;;9.5;7.0;;;;;;;9.2;100.0;101670;;;;
2022/05/03 06:08:00;;;;;;;9.5;7.0;;;;;;;9.3;100.0;101670;;;;
2022/05/03 06:09:00;;;;;;;9.5;7.0;;;;;;;9.3;100.0;101670;;;;
2022/05/03 06:10:00;;;;;;;9.5;7.0;;;;;;;9.3;100.0;101670;;;;
2022/05/03 06:11:01;;;;;;;9.5;7.0;;;;;;;9.3;100.0;101670;;;;
2022/05/03 06:12:00;;;;;;;9.5;7.0;;;;;;;9.3;100.0;101670;;;;
2022/05/03 06:13:02;;;;;;;9.5;7.0;;;;;;;9.3;100.0;101670;;;;
2022/05/03 06:14:00;;;;;;;9.5;7.0;;;;;;;9.4;100.0;101670;;;;
2022/05/03 06:15:00;;;;;;;9.5;7.0;;;;;;;9.4;100.0;101670;;;;
2022/05/03 06:16:08;;;;;;;9.5;7.0;;;;;;;9.5;100.0;101670;;;;
2022/05/03 06:17:00;;;;;;;9.5;7.0;;;;;;;9.5;100.0;101670;;;;
2022/05/03 06:18:01;;;;;;;9.5;7.0;;;;;;;9.6;100.0;101670;;;;
2022/05/03 06:19:00;;;;;;;9.5;7.0;;;;;;;9.6;100.0;101670;;;;
2022/05/03 06:20:00;;;;;;;9.5;7.0;;;;;;;9.7;100.0;101670;;;;
2022/05/03 06:21:01;;;;;;;9.5;7.0;;;;;;;9.7;100.0;101670;;;;
2022/05/03 06:22:00;;;;;;;9.5;7.0;;;;;;;9.7;100.0;101670;;;;
2022/05/03 06:23:00;;;;;;;9.5;7.0;;;;;;;9.7;100.0;101670;;;;
2022/05/03 06:24:00;;;;;;;9.5;7.0;;;;;;;9.8;100.0;101670;;;;
2022/05/03 06:25:00;;;;;;;9.5;7.0;;;;;;;9.8;100.0;101670;;;;
2022/05/03 06:26:01;;;;;;;7.0;6.3;;;;;;;9.9;100.0;101670;;;;
2022/05/03 06:27:00;;;;;;;7.0;6.3;;;;;;;9.9;100.0;101670;;;;
2022/05/03 06:28:00;;;;;;;7.0;6.3;;;;;;;10.0;100.0;101680;;;;
2022/05/03 06:29:00;;;;;;;7.0;6.3;;;;;;;10.0;100.0;101680;;;;
2022/05/03 06:30:00;;;;;;;7.0;6.3;;;;;;;10.1;100.0;101680;;;;
2022/05/03 06:31:00;;;;;;;7.0;6.3;;;;;;;10.1;100.0;101680;;;;
2022/05/03 06:32:00;;;;;;;7.0;6.3;;;;;;;10.1;100.0;101680;;;;
2022/05/03 06:33:00;;;;;;;7.0;6.3;;;;;;;10.1;100.0;101680;;;;
2022/05/03 06:34:01;;;;;;;7.0;6.3;;;;;;;10.2;100.0;101670;;;;
2022/05/03 06:35:00;;;;;;;7.0;6.3;;;;;;;10.2;100.0;101670;;;;